Decoded Metar for OPPS (PESHAWAR in PAKISTAN) (IATA:PEW) | Meteo·Mobile Aviation Weather
aviador You're here:

OPPS Decoded Metar

PESHAWAR in PAKISTAN
Report Time2018-09-25 19:30:00
UTC Time2018-09-25 19:42:02
Flight Rules ifr IFR
Wind310° at 06 kt
W.Decomp.*RWY 35: 4.5 kt HW 4 kt LCW
W.Rank310° ranks 3
Current wind is below 310° avg. (7.5)
Visibility4000 m
Phenomena:Haze
Clouds:Scattered 040 Hf
Scattered 100 Hf
Expected CloudBase > 2,000 ft AGL from Temp-Dew spread
CeilingNone
Temp26°C (ISA +13)
Dew Point21°C (74% RH)
QNH1009 hPa
Density Alt3,189 ft
Elevation1,181 ft
Report Wrong Elevation
Raw Report
OPPS 251930Z 31006KT 4000 HZ SCT040 SCT100 26/21 Q1009=

Extra information for OPPS:More info

Metar Taf Metar & Taf Last 4 Metars F.Rules Stats Wind Profile Meteogram Temp Stats Airport Information Weather charts Add Link Nearby VenuesMetar ALERT Operation Metar Decoded Social comments